createdAt,value
2022-10-10T00:01:53.417Z,6.55
2022-10-10T00:04:57.239Z,6.53
2022-10-10T00:08:00.983Z,6.51
2022-10-10T00:11:05.528Z,6.48
2022-10-10T00:14:09.276Z,6.49
2022-10-10T00:17:14.306Z,6.49
2022-10-10T00:20:21.176Z,6.45
2022-10-10T00:23:25.436Z,6.43
2022-10-10T00:26:29.810Z,6.45
2022-10-10T00:29:33.522Z,6.38
2022-10-10T00:32:39.017Z,6.38
2022-10-10T00:35:43.154Z,6.34
2022-10-10T00:38:46.730Z,6.35
2022-10-10T00:41:50.405Z,6.31
2022-10-10T00:45:29.176Z,6.27
2022-10-10T00:48:38.090Z,6.21
2022-10-10T00:51:42.884Z,6.23
2022-10-10T00:54:46.506Z,6.22
2022-10-10T00:57:52.239Z,6.22
2022-10-10T01:00:56.783Z,6.25
2022-10-10T01:04:03.774Z,6.23
2022-10-10T01:07:12.560Z,6.18
2022-10-10T01:10:22.987Z,6.18
2022-10-10T01:13:36.104Z,6.15
2022-10-10T01:16:48.601Z,6.12
2022-10-10T01:20:32.296Z,6.06
2022-10-10T01:24:09.459Z,6.08
2022-10-10T01:27:33.400Z,6.04
2022-10-10T01:30:40.147Z,5.97
2022-10-10T01:33:55.882Z,6.03
2022-10-10T01:37:06.939Z,6.06
2022-10-10T01:40:25.061Z,6.07
2022-10-10T01:43:28.725Z,6.04
2022-10-10T01:46:35.176Z,6.01
2022-10-10T01:49:41.891Z,6.00
2022-10-10T01:53:01.847Z,5.95
2022-10-10T01:56:15.940Z,5.93
2022-10-10T01:59:38.030Z,5.91
2022-10-10T02:02:51.982Z,5.87
2022-10-10T02:06:03.656Z,5.89
2022-10-10T02:09:16.029Z,5.90
2022-10-10T02:12:23.475Z,5.88
2022-10-10T02:15:33.434Z,5.93
2022-10-10T02:18:39.529Z,5.89
2022-10-10T02:21:44.279Z,5.86
2022-10-10T02:24:47.858Z,5.90
2022-10-10T02:28:07.618Z,5.88
2022-10-10T02:31:18.615Z,5.88
2022-10-10T02:34:30.805Z,5.81
2022-10-10T02:37:35.558Z,5.77
2022-10-10T02:40:43.051Z,5.77
2022-10-10T02:43:47.607Z,5.75
2022-10-10T02:46:51.394Z,5.73
2022-10-10T02:49:56.395Z,5.69
2022-10-10T02:53:00.960Z,5.69
2022-10-10T02:56:04.795Z,5.71
2022-10-10T02:59:08.521Z,5.68
2022-10-10T03:02:13.925Z,5.67
2022-10-10T03:05:19.124Z,5.65
2022-10-10T03:08:22.818Z,5.62
2022-10-10T03:11:26.558Z,5.61
2022-10-10T03:14:30.166Z,5.59
2022-10-10T03:17:33.784Z,5.55
2022-10-10T03:20:38.819Z,5.52
2022-10-10T03:23:42.715Z,5.49
2022-10-10T03:26:46.339Z,5.45
2022-10-10T03:29:49.951Z,5.37
2022-10-10T03:32:53.969Z,5.37
2022-10-10T03:35:59.187Z,5.31
2022-10-10T03:39:02.954Z,5.28
2022-10-10T03:42:06.858Z,5.28
2022-10-10T03:45:11.310Z,5.24
2022-10-10T03:48:15.655Z,5.22
2022-10-10T03:51:20.874Z,5.23
2022-10-10T03:54:24.534Z,5.20
2022-10-10T03:57:28.160Z,5.21
2022-10-10T04:00:31.888Z,5.17
2022-10-10T04:03:35.439Z,5.15
2022-10-10T04:06:40.459Z,5.15
2022-10-10T04:09:44.023Z,5.18
2022-10-10T04:12:47.784Z,5.17
2022-10-10T04:15:52.555Z,5.17
2022-10-10T04:18:56.118Z,5.15
2022-10-10T04:22:01.066Z,5.13
2022-10-10T04:25:04.960Z,5.12
2022-10-10T04:28:08.731Z,5.07
2022-10-10T04:31:12.351Z,5.06
2022-10-10T04:34:16.241Z,5.02
2022-10-10T04:37:21.149Z,5.04
2022-10-10T04:40:26.796Z,5.06
2022-10-10T04:43:30.704Z,5.05
2022-10-10T04:46:36.269Z,5.01
2022-10-10T04:49:42.126Z,5.00
2022-10-10T04:52:47.362Z,5.00
2022-10-10T04:55:51.268Z,4.95
2022-10-10T04:58:55.148Z,4.94
2022-10-10T05:02:01.728Z,4.91
2022-10-10T05:05:06.942Z,4.91
2022-10-10T05:08:11.880Z,4.87
2022-10-10T05:11:15.520Z,4.88
2022-10-10T05:14:19.227Z,4.86
2022-10-10T05:17:22.911Z,4.83
2022-10-10T05:20:26.548Z,4.79
2022-10-10T05:23:32.139Z,4.75
2022-10-10T05:26:39.709Z,4.71
2022-10-10T05:29:46.119Z,4.73
2022-10-10T05:32:50.009Z,4.67
2022-10-10T05:35:53.870Z,4.66
2022-10-10T05:38:59.748Z,4.65
2022-10-10T05:42:03.467Z,4.69
2022-10-10T05:45:08.388Z,4.63
2022-10-10T05:48:12.043Z,4.64
2022-10-10T05:51:15.785Z,4.59
2022-10-10T05:54:21.487Z,4.65
2022-10-10T05:57:25.160Z,4.62
2022-10-10T06:00:28.984Z,4.59
2022-10-10T06:03:33.106Z,4.61
2022-10-10T06:06:36.695Z,4.59
2022-10-10T06:09:41.615Z,4.62
2022-10-10T06:12:45.318Z,4.63
2022-10-10T06:15:53.216Z,4.71
2022-10-10T06:18:57.815Z,4.74
2022-10-10T06:22:01.583Z,4.73
2022-10-10T06:25:15.205Z,4.77
2022-10-10T06:28:27.987Z,4.82
2022-10-10T06:31:31.777Z,4.87
2022-10-10T06:34:36.436Z,4.94
2022-10-10T06:37:40.049Z,4.99
2022-10-10T06:40:45.980Z,5.06
2022-10-10T06:43:51.922Z,5.12
2022-10-10T06:46:55.678Z,5.22
2022-10-10T06:50:00.494Z,5.32
2022-10-10T06:53:04.766Z,5.41
2022-10-10T06:56:17.455Z,5.52
2022-10-10T06:59:21.135Z,5.66
2022-10-10T07:02:25.097Z,5.81
2022-10-10T07:05:28.876Z,5.98
2022-10-10T07:08:34.700Z,6.07
2022-10-10T07:11:41.676Z,6.22
2022-10-10T07:14:45.258Z,6.30
2022-10-10T07:17:54.119Z,6.45
2022-10-10T07:20:59.222Z,6.52
2022-10-10T07:24:02.968Z,6.67
2022-10-10T07:27:09.017Z,6.81
2022-10-10T07:30:15.098Z,7.00
2022-10-10T07:33:18.735Z,7.17
2022-10-10T07:36:22.423Z,7.42
2022-10-10T07:39:27.090Z,7.53
2022-10-10T07:42:32.094Z,7.64
2022-10-10T07:45:37.696Z,7.82
2022-10-10T07:48:41.371Z,7.98
2022-10-10T07:51:44.992Z,8.17
2022-10-10T07:54:48.608Z,8.28
2022-10-10T07:57:53.788Z,8.46
2022-10-10T08:01:04.750Z,8.81
2022-10-10T08:04:08.371Z,8.81
2022-10-10T08:07:12.035Z,8.96
2022-10-10T08:10:15.767Z,9.20
2022-10-10T08:13:20.744Z,9.26
2022-10-10T08:16:24.577Z,9.41
2022-10-10T08:19:28.233Z,9.54
2022-10-10T08:22:34.027Z,9.71
2022-10-10T08:25:37.803Z,9.94
2022-10-10T08:28:44.107Z,10.11
2022-10-10T08:31:47.817Z,10.15
2022-10-10T08:34:51.595Z,10.27
2022-10-10T08:37:56.072Z,10.51
2022-10-10T08:41:07.602Z,10.48
2022-10-10T08:44:24.013Z,10.73
2022-10-10T08:47:40.371Z,10.80
2022-10-10T08:50:50.705Z,10.73
2022-10-10T08:54:00.200Z,10.94
2022-10-10T08:57:15.011Z,10.91
2022-10-10T09:00:25.164Z,10.83
2022-10-10T09:03:40.636Z,11.13
2022-10-10T09:07:07.736Z,11.22
2022-10-10T09:10:25.765Z,11.30
2022-10-10T09:13:37.535Z,11.50
2022-10-10T09:16:57.240Z,11.47
2022-10-10T09:20:19.217Z,11.47
2022-10-10T09:23:29.646Z,11.48
2022-10-10T09:26:41.625Z,11.57
2022-10-10T09:29:53.474Z,11.70
2022-10-10T09:33:09.404Z,11.81
2022-10-10T09:36:21.118Z,11.91
2022-10-10T09:39:37.135Z,12.08
2022-10-10T09:42:41.584Z,12.20
2022-10-10T09:45:53.067Z,12.46
2022-10-10T09:48:59.623Z,12.53
2022-10-10T09:52:24.093Z,12.70
2022-10-10T09:55:36.471Z,13.11
2022-10-10T09:58:44.413Z,13.41
2022-10-10T10:02:10.220Z,13.44
2022-10-10T10:05:28.937Z,13.59
2022-10-10T10:08:35.742Z,13.75
2022-10-10T10:11:40.763Z,13.83
2022-10-10T10:14:46.904Z,13.95
2022-10-10T10:18:12.690Z,14.20
2022-10-10T10:21:24.344Z,14.32
2022-10-10T10:24:36.434Z,14.38
2022-10-10T10:27:40.119Z,14.23
2022-10-10T10:30:46.296Z,14.16
2022-10-10T10:34:07.148Z,14.05
2022-10-10T10:37:23.308Z,14.08
2022-10-10T10:40:38.936Z,14.09
2022-10-10T10:44:28.459Z,14.01
2022-10-10T10:47:49.794Z,14.00
2022-10-10T10:50:58.597Z,14.11
2022-10-10T10:54:24.296Z,14.24
2022-10-10T10:58:04.686Z,14.22
2022-10-10T11:01:44.815Z,14.14
2022-10-10T11:05:30.261Z,14.21
2022-10-10T11:09:01.827Z,14.44
2022-10-10T11:12:23.435Z,14.33
2022-10-10T11:16:01.438Z,14.31
2022-10-10T11:19:18.463Z,14.31
2022-10-10T11:22:26.997Z,14.34
2022-10-10T11:25:37.689Z,14.38
2022-10-10T11:28:51.751Z,14.48
2022-10-10T11:32:01.186Z,14.64
2022-10-10T11:35:19.372Z,14.85
2022-10-10T11:38:32.888Z,14.97
2022-10-10T11:41:42.302Z,15.03
2022-10-10T11:44:54.435Z,15.03
2022-10-10T11:48:13.066Z,15.07
2022-10-10T11:51:32.405Z,15.13
2022-10-10T11:54:45.557Z,15.04
2022-10-10T11:57:56.854Z,15.01
2022-10-10T12:01:11.436Z,14.97
2022-10-10T12:04:15.039Z,15.21
2022-10-10T12:07:25.232Z,15.23
2022-10-10T12:10:35.558Z,15.32
2022-10-10T12:13:45.591Z,15.31
2022-10-10T12:16:53.699Z,15.52
2022-10-10T12:20:08.984Z,15.40
2022-10-10T12:23:28.818Z,15.43
2022-10-10T12:27:27.602Z,15.37
2022-10-10T12:30:31.672Z,15.43
2022-10-10T12:34:04.336Z,15.45
2022-10-10T12:37:26.168Z,15.35
2022-10-10T12:40:29.833Z,15.36
2022-10-10T12:43:50.931Z,15.49
2022-10-10T12:47:59.736Z,15.55
2022-10-10T12:51:01.614Z,15.52
2022-10-10T12:54:08.558Z,15.54
2022-10-10T12:57:22.873Z,15.62
2022-10-10T13:00:36.755Z,15.80
2022-10-10T13:03:47.662Z,15.81
2022-10-10T13:06:57.613Z,15.78
2022-10-10T13:10:20.154Z,15.84
2022-10-10T13:13:24.122Z,15.83
2022-10-10T13:16:34.016Z,15.75
2022-10-10T13:19:42.928Z,15.88
2022-10-10T13:22:48.180Z,15.75
2022-10-10T13:25:51.955Z,15.81
2022-10-10T13:28:58.051Z,15.76
2022-10-10T13:32:06.227Z,15.64
2022-10-10T13:35:18.385Z,15.56
2022-10-10T13:38:27.355Z,15.49
2022-10-10T13:41:31.293Z,15.44
2022-10-10T13:44:50.449Z,15.44
2022-10-10T13:47:58.467Z,15.42
2022-10-10T13:51:10.441Z,15.43
2022-10-10T13:54:42.867Z,15.45
2022-10-10T13:57:47.906Z,15.35
2022-10-10T14:00:58.085Z,15.28
2022-10-10T14:04:21.715Z,15.33
2022-10-10T14:07:27.918Z,15.21
2022-10-10T14:10:36.057Z,15.17
2022-10-10T14:13:40.331Z,15.05
2022-10-10T14:16:43.963Z,14.95
2022-10-10T14:19:49.571Z,14.88
2022-10-10T14:22:53.321Z,14.79
2022-10-10T14:25:59.636Z,14.74
2022-10-10T14:29:03.323Z,14.68
2022-10-10T14:32:07.597Z,14.66
2022-10-10T14:35:14.219Z,14.63
2022-10-10T14:38:18.601Z,14.62
2022-10-10T14:41:23.535Z,14.58
2022-10-10T14:44:27.231Z,14.55
2022-10-10T14:47:30.895Z,14.56
2022-10-10T14:50:37.483Z,14.58
2022-10-10T14:53:41.358Z,14.52
2022-10-10T14:57:08.597Z,14.49
2022-10-10T15:00:17.271Z,14.42
2022-10-10T15:03:21.211Z,14.45
2022-10-10T15:06:24.813Z,14.38
2022-10-10T15:09:41.554Z,14.31
2022-10-10T15:12:50.037Z,14.13
2022-10-10T15:15:53.683Z,13.86
2022-10-10T15:18:57.362Z,13.45
2022-10-10T15:22:00.930Z,13.22
2022-10-10T15:25:05.520Z,12.99
2022-10-10T15:28:11.359Z,12.86
2022-10-10T15:31:15.044Z,12.72
2022-10-10T15:34:19.208Z,12.66
2022-10-10T15:37:26.952Z,12.62
2022-10-10T15:40:30.599Z,12.57
2022-10-10T15:43:45.588Z,12.50
2022-10-10T15:46:49.246Z,12.48
2022-10-10T15:49:52.811Z,12.39
2022-10-10T15:52:56.510Z,12.33
2022-10-10T15:56:00.086Z,12.26
2022-10-10T15:59:05.512Z,12.21
2022-10-10T16:02:10.760Z,12.16
2022-10-10T16:05:14.383Z,12.13
2022-10-10T16:08:18.971Z,12.07
2022-10-10T16:11:25.249Z,12.02
2022-10-10T16:14:30.515Z,11.97
2022-10-10T16:17:34.185Z,11.95
2022-10-10T16:20:40.294Z,11.89
2022-10-10T16:23:43.859Z,11.86
2022-10-10T16:26:47.570Z,11.77
2022-10-10T16:29:52.581Z,11.73
2022-10-10T16:32:56.304Z,11.69
2022-10-10T16:35:59.971Z,11.67
2022-10-10T16:39:03.925Z,11.64
2022-10-10T16:42:07.734Z,11.61
2022-10-10T16:45:13.580Z,11.61
2022-10-10T16:48:17.145Z,11.60
2022-10-10T16:51:23.695Z,11.59
2022-10-10T16:54:27.408Z,11.58
2022-10-10T16:57:30.954Z,11.45
2022-10-10T17:00:36.215Z,11.08
2022-10-10T17:03:39.943Z,10.93
2022-10-10T17:06:43.502Z,10.86
2022-10-10T17:09:47.168Z,10.76
2022-10-10T17:12:50.933Z,10.78
2022-10-10T17:16:04.348Z,10.72
2022-10-10T17:19:18.315Z,10.68
2022-10-10T17:22:21.992Z,10.67
2022-10-10T17:25:25.575Z,10.66
2022-10-10T17:28:29.435Z,10.62
2022-10-10T17:31:34.489Z,10.55
2022-10-10T17:34:38.208Z,10.51
2022-10-10T17:37:41.852Z,10.50
2022-10-10T17:40:45.808Z,10.44
2022-10-10T17:43:50.010Z,10.38
2022-10-10T17:46:54.999Z,10.30
2022-10-10T17:49:58.583Z,10.23
2022-10-10T17:53:02.193Z,10.25
2022-10-10T17:56:12.083Z,10.23
2022-10-10T17:59:15.864Z,10.19
2022-10-10T18:02:21.156Z,10.00
2022-10-10T18:05:24.816Z,9.90
2022-10-10T18:08:28.506Z,9.84
2022-10-10T18:11:33.113Z,9.75
2022-10-10T18:14:36.675Z,9.72
2022-10-10T18:17:41.751Z,9.64
2022-10-10T18:20:46.225Z,9.60
2022-10-10T18:23:50.292Z,9.52
2022-10-10T18:26:54.101Z,9.48
2022-10-10T18:29:57.798Z,9.40
2022-10-10T18:33:02.769Z,9.36
2022-10-10T18:36:08.105Z,9.29
2022-10-10T18:39:29.455Z,9.23
2022-10-10T18:42:36.749Z,9.20
2022-10-10T18:45:40.635Z,9.20
2022-10-10T18:48:49.025Z,9.22
2022-10-10T18:51:55.550Z,9.19
2022-10-10T18:55:01.985Z,9.15
2022-10-10T18:58:07.298Z,9.09
2022-10-10T19:01:13.626Z,9.08
2022-10-10T19:04:20.791Z,9.05
2022-10-10T19:07:24.560Z,9.04
2022-10-10T19:10:28.261Z,8.99
2022-10-10T19:13:32.636Z,8.95
2022-10-10T19:16:37.127Z,8.91
2022-10-10T19:19:42.132Z,8.87
2022-10-10T19:22:45.790Z,8.85
2022-10-10T19:25:49.359Z,8.82
2022-10-10T19:28:53.316Z,8.73
2022-10-10T19:31:57.362Z,8.67
2022-10-10T19:35:02.379Z,8.60
2022-10-10T19:38:06.767Z,8.57
2022-10-10T19:41:14.310Z,8.55
2022-10-10T19:44:17.924Z,8.46
2022-10-10T19:47:21.713Z,8.40
2022-10-10T19:50:26.789Z,8.39
2022-10-10T19:53:31.136Z,8.31
2022-10-10T19:56:34.800Z,8.27
2022-10-10T19:59:38.803Z,8.22
2022-10-10T20:02:43.911Z,8.19
2022-10-10T20:05:49.168Z,8.16
2022-10-10T20:08:52.697Z,8.10
2022-10-10T20:11:56.502Z,8.05
2022-10-10T20:15:00.218Z,8.00
2022-10-10T20:18:03.944Z,7.94
2022-10-10T20:21:17.734Z,7.94
2022-10-10T20:24:21.614Z,7.88
2022-10-10T20:27:30.193Z,7.88
2022-10-10T20:30:36.247Z,7.86
2022-10-10T20:33:39.860Z,7.84
2022-10-10T20:36:50.205Z,7.81
2022-10-10T20:39:54.234Z,7.79
2022-10-10T20:42:59.547Z,7.77
2022-10-10T20:46:09.346Z,7.73
2022-10-10T20:49:17.440Z,7.68
2022-10-10T20:52:23.043Z,7.65
2022-10-10T20:55:27.293Z,7.65
2022-10-10T20:58:31.026Z,7.64
2022-10-10T21:01:35.610Z,7.58
2022-10-10T21:04:39.408Z,7.53
2022-10-10T21:07:45.926Z,7.53
2022-10-10T21:10:49.523Z,7.51
2022-10-10T21:13:56.736Z,7.49
2022-10-10T21:17:00.434Z,7.43
2022-10-10T21:20:04.185Z,7.35
2022-10-10T21:23:09.399Z,7.37
2022-10-10T21:26:16.723Z,7.36
2022-10-10T21:29:20.445Z,7.29
2022-10-10T21:32:24.032Z,7.25
2022-10-10T21:35:27.811Z,7.19
2022-10-10T21:38:32.789Z,7.13
2022-10-10T21:41:38.327Z,7.12
2022-10-10T21:44:42.779Z,7.07
2022-10-10T21:47:47.484Z,7.06
2022-10-10T21:50:51.054Z,7.13
2022-10-10T21:53:59.575Z,7.19
2022-10-10T21:57:03.079Z,7.22
2022-10-10T22:00:10.167Z,7.26
2022-10-10T22:03:13.935Z,7.24
2022-10-10T22:06:21.108Z,7.23
2022-10-10T22:09:26.046Z,7.22
2022-10-10T22:12:29.656Z,7.19
2022-10-10T22:15:33.232Z,7.22
2022-10-10T22:18:41.467Z,7.20
2022-10-10T22:21:44.972Z,7.21
2022-10-10T22:24:50.095Z,7.20
2022-10-10T22:27:57.142Z,7.19
2022-10-10T22:31:05.976Z,7.14
2022-10-10T22:34:09.584Z,7.13
2022-10-10T22:37:13.205Z,7.12
2022-10-10T22:40:18.539Z,7.09
2022-10-10T22:43:26.678Z,7.08
2022-10-10T22:46:31.126Z,7.06
2022-10-10T22:49:37.888Z,7.11
2022-10-10T22:52:42.095Z,7.06
2022-10-10T22:55:47.148Z,7.02
2022-10-10T22:58:52.581Z,7.00
2022-10-10T23:01:56.425Z,6.98
2022-10-10T23:05:00.811Z,6.99
2022-10-10T23:08:04.677Z,6.97
2022-10-10T23:11:09.766Z,6.96
2022-10-10T23:14:13.539Z,6.95
2022-10-10T23:17:17.162Z,6.95
2022-10-10T23:20:20.742Z,6.92
2022-10-10T23:23:24.543Z,6.91
2022-10-10T23:26:29.595Z,6.89
2022-10-10T23:29:34.061Z,6.87
2022-10-10T23:32:37.718Z,6.87
2022-10-10T23:35:41.401Z,6.86
2022-10-10T23:38:45.715Z,6.88
2022-10-10T23:41:50.713Z,6.88
2022-10-10T23:44:54.302Z,6.90
2022-10-10T23:47:57.967Z,6.90
2022-10-10T23:51:01.572Z,6.86
2022-10-10T23:54:06.930Z,6.80
2022-10-10T23:57:11.930Z,6.78
